Terminal Aerodrome Forecast
Issued by NWS

Home | Current Version | Previous Version | Text Only | Print | Product List | Glossary On
Versions: 1 2 3 4 5 6 7 8 9 10 11 12 13 14 15
684
FTUS46 KMTR 252041 AAA
TAFSNS
TAF AMD
KSNS 252041Z 2521/2618 26011KT P6SM BKN023 OVC028
     FM260300 25012KT P6SM OVC018
     FM260600 24010KT P6SM OVC009=

USA.gov is the U.S. government's official web portal to all federal, state and local government web resources and services.